Time;durP1;ratioP1;P1;durP2;ratioP2;P2;SDS_P1;SDS_P2;PMS_P1;PMS_P2;Temp;Humidity;BMP_temperature;BMP_pressure;BME280_temperature;BME280_humidity;BME280_pressure;Samples;Min_cycle;Max_cycle;Signal;HPM_P1;HPM_P2
2023/12/15 00:00:47;;;;;;;21.73;13.13;;;4.50;99.90;;;;;;2075058;28;20025;-75
2023/12/15 00:01:48;;;;;;;22.88;13.65;;;4.50;99.90;;;;;;2076219;28;20033;-75
2023/12/15 00:02:48;;;;;;;23.40;13.25;;;4.50;99.90;;;;;;2075253;28;20372;-75
2023/12/15 00:03:49;;;;;;;23.35;13.43;;;4.50;99.90;;;;;;2075061;28;20064;-76
2023/12/15 00:04:49;;;;;;;26.63;14.20;;;4.50;99.90;;;;;;2076181;28;20032;-76
2023/12/15 00:05:50;;;;;;;22.85;13.40;;;4.40;99.90;;;;;;2074990;28;20025;-77
2023/12/15 00:06:50;;;;;;;26.15;14.23;;;4.50;99.90;;;;;;2077497;28;20033;-75
2023/12/15 00:07:51;;;;;;;24.27;13.18;;;4.40;99.90;;;;;;2067224;28;20042;-75
2023/12/15 00:08:51;;;;;;;25.10;14.30;;;4.40;99.90;;;;;;2066359;28;20476;-76
2023/12/15 00:09:52;;;;;;;25.40;14.27;;;4.40;99.90;;;;;;2073975;28;20030;-75
2023/12/15 00:10:52;;;;;;;24.00;14.30;;;4.40;99.90;;;;;;2076001;28;20063;-75
2023/12/15 00:11:53;;;;;;;26.73;14.35;;;4.40;99.90;;;;;;2083512;28;20634;-76
2023/12/15 00:12:53;;;;;;;26.35;14.40;;;4.40;99.90;;;;;;2085194;28;20039;-76
2023/12/15 00:13:54;;;;;;;25.17;15.02;;;4.40;99.90;;;;;;2086461;28;20032;-77
2023/12/15 00:14:54;;;;;;;25.88;13.88;;;4.40;99.90;;;;;;2082262;28;20108;-76
2023/12/15 00:15:55;;;;;;;25.52;14.13;;;4.40;99.90;;;;;;2079382;28;20259;-77
2023/12/15 00:16:56;;;;;;;25.33;14.18;;;4.40;99.90;;;;;;2078929;28;20033;-76
2023/12/15 00:17:56;;;;;;;27.90;14.68;;;4.40;99.90;;;;;;2074763;28;20048;-77
2023/12/15 00:18:57;;;;;;;25.52;14.25;;;4.40;99.90;;;;;;2074966;28;20476;-76
2023/12/15 00:19:57;;;;;;;26.67;14.15;;;4.40;99.90;;;;;;2086424;28;20108;-76
2023/12/15 00:20:58;;;;;;;25.83;13.95;;;4.40;99.90;;;;;;2084197;28;20025;-77
2023/12/15 00:21:58;;;;;;;26.35;14.25;;;4.40;99.90;;;;;;2077255;28;20097;-75
2023/12/15 00:22:59;;;;;;;24.02;13.52;;;4.30;99.90;;;;;;2075075;28;20017;-75
2023/12/15 00:24:02;;;;;;;24.75;14.25;;;4.30;99.90;;;;;;2076847;28;20080;-75
2023/12/15 00:25:02;;;;;;;24.80;14.10;;;4.30;99.90;;;;;;2076003;28;20029;-76
2023/12/15 00:26:03;;;;;;;26.38;13.65;;;4.30;99.90;;;;;;2078370;28;20032;-75
2023/12/15 00:27:04;;;;;;;25.67;13.73;;;4.30;99.90;;;;;;2077781;28;20117;-76
2023/12/15 00:28:04;;;;;;;23.20;13.48;;;4.30;99.90;;;;;;2076439;28;20838;-75
2023/12/15 00:29:05;;;;;;;23.67;13.70;;;4.30;99.90;;;;;;2078987;28;20091;-76
2023/12/15 00:30:06;;;;;;;27.20;14.38;;;4.30;99.90;;;;;;2085100;28;20342;-76
2023/12/15 00:31:06;;;;;;;28.40;13.50;;;4.30;99.90;;;;;;2066626;28;20415;-75
2023/12/15 00:32:07;;;;;;;24.00;14.05;;;4.30;99.90;;;;;;2065535;28;20030;-76
2023/12/15 00:33:07;;;;;;;24.88;13.20;;;4.30;99.90;;;;;;2077480;28;20032;-77
2023/12/15 00:34:08;;;;;;;25.38;14.25;;;4.30;99.90;;;;;;2075976;28;20032;-76
2023/12/15 00:35:08;;;;;;;25.52;14.40;;;4.30;99.90;;;;;;2079117;28;20035;-76
2023/12/15 00:36:09;;;;;;;24.60;13.70;;;4.30;99.90;;;;;;2075020;28;20061;-76
2023/12/15 00:37:10;;;;;;;24.05;13.90;;;4.30;99.90;;;;;;2075334;28;20461;-76
2023/12/15 00:38:10;;;;;;;26.60;13.68;;;4.30;99.90;;;;;;2074965;28;20040;-76
2023/12/15 00:39:11;;;;;;;23.70;13.48;;;4.30;99.90;;;;;;2082441;28;20048;-76
2023/12/15 00:40:11;;;;;;;24.05;13.18;;;4.30;99.90;;;;;;2085934;28;20120;-76
2023/12/15 00:41:12;;;;;;;23.10;13.23;;;4.30;99.90;;;;;;2075748;28;20082;-76
2023/12/15 00:42:13;;;;;;;25.00;13.77;;;4.30;99.90;;;;;;2086533;28;20033;-76
2023/12/15 00:43:14;;;;;;;25.80;13.80;;;4.30;99.90;;;;;;2086027;28;20024;-75
2023/12/15 00:44:14;;;;;;;23.80;13.80;;;4.30;99.90;;;;;;2075338;28;20057;-76
2023/12/15 00:45:15;;;;;;;22.92;13.18;;;4.30;99.90;;;;;;2079165;28;20067;-77
2023/12/15 00:46:15;;;;;;;25.73;14.35;;;4.30;99.90;;;;;;2075066;28;20041;-77
2023/12/15 00:47:16;;;;;;;23.55;13.20;;;4.30;99.90;;;;;;2075968;28;20025;-76
2023/12/15 00:48:16;;;;;;;24.20;13.95;;;4.30;99.90;;;;;;2078190;28;20059;-75
2023/12/15 00:49:17;;;;;;;22.85;13.02;;;4.30;99.90;;;;;;2078516;28;20248;-75
2023/12/15 00:50:18;;;;;;;24.75;13.55;;;4.30;99.90;;;;;;2074944;28;20479;-76
2023/12/15 00:51:18;;;;;;;24.45;13.70;;;4.30;99.90;;;;;;2077991;28;20033;-76
2023/12/15 00:52:19;;;;;;;23.13;13.52;;;4.40;99.90;;;;;;2077971;28;20029;-76
2023/12/15 00:53:20;;;;;;;23.65;13.60;;;4.30;99.90;;;;;;2075385;28;20065;-76
2023/12/15 00:54:20;;;;;;;24.35;13.57;;;4.30;99.90;;;;;;2078696;28;20568;-77
2023/12/15 00:55:21;;;;;;;22.33;13.07;;;4.30;99.90;;;;;;2078855;28;20136;-76
2023/12/15 00:56:21;;;;;;;25.60;14.25;;;4.30;99.90;;;;;;2082973;28;20029;-74
2023/12/15 00:57:22;;;;;;;25.27;14.50;;;4.20;99.90;;;;;;2086077;28;20333;-74
2023/12/15 00:58:22;;;;;;;24.40;14.07;;;4.20;99.90;;;;;;2077963;28;20029;-76
2023/12/15 00:59:23;;;;;;;23.58;14.10;;;4.20;99.90;;;;;;2074894;28;20034;-75
2023/12/15 01:00:23;;;;;;;24.10;14.05;;;4.20;99.90;;;;;;2078367;28;20037;-76
2023/12/15 01:01:24;;;;;;;26.70;14.43;;;4.20;99.90;;;;;;2078942;28;20196;-76
2023/12/15 01:02:24;;;;;;;24.75;13.77;;;4.20;99.90;;;;;;2083007;28;20049;-76
2023/12/15 01:03:25;;;;;;;21.75;13.52;;;4.30;99.90;;;;;;2082861;28;20052;-76
2023/12/15 01:04:25;;;;;;;26.35;14.10;;;4.30;99.90;;;;;;2080313;28;20029;-76
2023/12/15 01:05:27;;;;;;;25.17;14.57;;;4.30;99.90;;;;;;2077260;28;20033;-75
2023/12/15 01:06:28;;;;;;;26.52;14.93;;;4.30;99.90;;;;;;2077891;28;20037;-75
2023/12/15 01:07:31;;;;;;;26.45;14.52;;;4.30;99.90;;;;;;2080098;28;20180;-76
2023/12/15 01:08:31;;;;;;;26.52;14.48;;;4.30;99.90;;;;;;2077625;28;20021;-76
2023/12/15 01:09:32;;;;;;;26.27;14.15;;;4.30;99.90;;;;;;2076488;28;20487;-77
2023/12/15 01:10:32;;;;;;;28.25;15.40;;;4.30;99.90;;;;;;2076878;28;20490;-77
2023/12/15 01:11:33;;;;;;;26.15;15.10;;;4.30;99.90;;;;;;2075040;28;20030;-77
2023/12/15 01:12:33;;;;;;;27.75;15.70;;;4.30;99.90;;;;;;2075957;28;20107;-76
2023/12/15 01:13:34;;;;;;;28.77;14.45;;;4.30;99.90;;;;;;2078267;28;20506;-76
2023/12/15 01:14:34;;;;;;;26.45;14.45;;;4.30;99.90;;;;;;2084308;28;20033;-77
2023/12/15 01:15:35;;;;;;;26.20;14.38;;;4.30;99.90;;;;;;2075700;28;20028;-77
2023/12/15 01:16:45;;;;;;;25.88;15.15;;;4.30;99.90;;;;;;2069286;28;20076;-77
2023/12/15 01:17:46;;;;;;;24.50;14.23;;;4.30;99.90;;;;;;2079309;28;20029;-75
2023/12/15 01:18:46;;;;;;;27.05;14.30;;;4.30;99.90;;;;;;2076525;28;20023;-76
2023/12/15 01:19:47;;;;;;;24.85;14.10;;;4.30;99.90;;;;;;2076181;28;20056;-76
2023/12/15 01:20:48;;;;;;;23.65;14.20;;;4.40;99.90;;;;;;2080374;28;20493;-75
2023/12/15 01:21:48;;;;;;;25.52;14.63;;;4.30;99.90;;;;;;2076210;28;20491;-74
2023/12/15 01:22:49;;;;;;;24.08;13.93;;;4.30;99.90;;;;;;2083783;28;20036;-76
2023/12/15 01:23:49;;;;;;;23.55;13.35;;;4.30;99.90;;;;;;2083660;28;20029;-76
2023/12/15 01:24:50;;;;;;;22.08;13.60;;;4.30;99.90;;;;;;2075614;28;20063;-77
2023/12/15 01:25:50;;;;;;;20.38;12.85;;;4.30;99.90;;;;;;2071200;28;20110;-75
2023/12/15 01:26:51;;;;;;;22.10;13.35;;;4.30;99.90;;;;;;2075500;28;20029;-77
2023/12/15 01:27:51;;;;;;;22.05;12.75;;;4.30;99.90;;;;;;2080205;28;20075;-74
2023/12/15 01:28:52;;;;;;;22.27;12.88;;;4.30;99.90;;;;;;2083828;28;20098;-74
2023/12/15 01:29:52;;;;;;;19.63;12.20;;;4.30;99.90;;;;;;2083589;28;20076;-75
2023/12/15 01:30:53;;;;;;;20.02;12.25;;;4.30;99.90;;;;;;2077782;28;20049;-75
2023/12/15 01:31:53;;;;;;;18.08;11.43;;;4.30;99.90;;;;;;2074861;28;20021;-75
2023/12/15 01:32:54;;;;;;;18.60;11.75;;;4.30;99.90;;;;;;2079112;28;20159;-76
2023/12/15 01:33:54;;;;;;;17.40;11.18;;;4.30;99.90;;;;;;2071185;28;20046;-76
2023/12/15 01:34:55;;;;;;;19.58;11.50;;;4.30;99.90;;;;;;2073198;28;20032;-76
2023/12/15 01:35:56;;;;;;;19.83;11.85;;;4.30;99.90;;;;;;2079285;28;20387;-78
2023/12/15 01:36:56;;;;;;;18.42;11.43;;;4.30;99.90;;;;;;2076143;28;20280;-77
2023/12/15 01:37:57;;;;;;;18.02;11.52;;;4.30;99.90;;;;;;2077137;28;20079;-77
2023/12/15 01:38:58;;;;;;;15.98;10.60;;;4.20;99.90;;;;;;2079112;28;20581;-77
2023/12/15 01:39:58;;;;;;;16.05;10.30;;;4.20;99.90;;;;;;2080307;28;20029;-77
2023/12/15 01:40:59;;;;;;;17.52;10.10;;;4.20;99.90;;;;;;2076023;28;20036;-77
2023/12/15 01:41:59;;;;;;;15.60;10.15;;;4.10;99.90;;;;;;2076132;28;20033;-76
2023/12/15 01:43:00;;;;;;;15.57;10.32;;;4.10;99.90;;;;;;2079423;28;20479;-77
2023/12/15 01:44:01;;;;;;;17.45;10.38;;;4.10;99.90;;;;;;2077686;28;20503;-78
2023/12/15 01:45:02;;;;;;;15.82;10.07;;;4.10;99.90;;;;;;2077938;28;20064;-77
2023/12/15 01:46:03;;;;;;;14.57;10.00;;;4.10;99.90;;;;;;2071103;28;20411;-78
2023/12/15 01:47:03;;;;;;;14.98;10.13;;;4.20;99.90;;;;;;2069030;28;20151;-76
2023/12/15 01:48:05;;;;;;;14.02;9.52;;;4.10;99.90;;;;;;2077522;28;20040;-76
2023/12/15 01:49:06;;;;;;;15.60;9.77;;;4.10;99.90;;;;;;2078328;28;20040;-77
2023/12/15 01:50:07;;;;;;;14.63;9.63;;;4.10;99.90;;;;;;2077298;28;20041;-78
2023/12/15 01:51:08;;;;;;;12.73;8.90;;;4.10;99.90;;;;;;2077131;28;20492;-77
2023/12/15 01:52:08;;;;;;;14.30;9.60;;;4.10;99.90;;;;;;2075528;28;21118;-77
2023/12/15 01:53:09;;;;;;;15.15;9.55;;;4.10;99.90;;;;;;2078666;28;20033;-77
2023/12/15 01:54:10;;;;;;;13.82;9.88;;;4.10;99.90;;;;;;2077810;28;20111;-76
2023/12/15 01:55:10;;;;;;;15.68;9.43;;;4.10;99.90;;;;;;2079907;28;20534;-76
2023/12/15 01:56:11;;;;;;;13.32;9.13;;;4.10;99.90;;;;;;2078806;28;20031;-76
2023/12/15 01:57:13;;;;;;;14.45;9.93;;;4.10;99.90;;;;;;2077195;28;20039;-78
2023/12/15 01:58:13;;;;;;;12.32;8.93;;;4.10;99.90;;;;;;2076558;28;20109;-77
2023/12/15 01:59:14;;;;;;;13.95;8.93;;;4.00;99.90;;;;;;2076060;28;20026;-76
2023/12/15 02:00:14;;;;;;;12.20;8.60;;;4.00;99.90;;;;;;2083300;28;20076;-76
2023/12/15 02:01:15;;;;;;;13.20;9.52;;;4.00;99.90;;;;;;2083328;28;20533;-75
2023/12/15 02:02:16;;;;;;;14.27;9.65;;;4.00;99.90;;;;;;2076113;28;20492;-76
2023/12/15 02:03:16;;;;;;;12.82;9.15;;;4.10;99.90;;;;;;2079738;28;20033;-77
2023/12/15 02:04:17;;;;;;;14.68;9.95;;;4.10;99.90;;;;;;2084322;28;20396;-77
2023/12/15 02:05:17;;;;;;;14.32;10.07;;;4.00;99.90;;;;;;2080612;28;20367;-77
2023/12/15 02:06:18;;;;;;;14.70;10.30;;;4.00;99.90;;;;;;2080095;28;20048;-76
2023/12/15 02:07:19;;;;;;;15.75;10.73;;;4.00;99.90;;;;;;2084364;28;20399;-77
2023/12/15 02:08:19;;;;;;;16.98;11.13;;;4.00;99.90;;;;;;2083331;28;20071;-77
2023/12/15 02:09:20;;;;;;;16.27;11.05;;;3.90;99.90;;;;;;2083276;28;20036;-76
2023/12/15 02:10:20;;;;;;;17.67;11.63;;;3.90;99.90;;;;;;2087667;28;20036;-76
2023/12/15 02:11:21;;;;;;;16.15;10.95;;;3.90;99.90;;;;;;2087195;28;20029;-77
2023/12/15 02:12:22;;;;;;;15.40;10.75;;;3.90;99.90;;;;;;2083457;28;20102;-76
2023/12/15 02:13:22;;;;;;;16.13;11.23;;;4.00;99.90;;;;;;2079017;28;20029;-74
2023/12/15 02:14:23;;;;;;;18.45;12.27;;;4.00;99.90;;;;;;2079406;28;20318;-76
2023/12/15 02:15:24;;;;;;;16.38;11.00;;;4.00;99.90;;;;;;2083781;28;20017;-77
2023/12/15 02:16:24;;;;;;;18.10;12.00;;;4.00;99.90;;;;;;2086870;28;20025;-76
2023/12/15 02:17:25;;;;;;;20.13;12.77;;;4.00;99.90;;;;;;2079871;28;20067;-77
2023/12/15 02:18:25;;;;;;;17.95;12.35;;;4.00;99.90;;;;;;2076628;28;20025;-77
2023/12/15 02:19:26;;;;;;;21.33;13.00;;;4.00;99.90;;;;;;2078431;28;20060;-76
2023/12/15 02:20:27;;;;;;;19.05;12.70;;;4.00;99.90;;;;;;2077661;28;20028;-76
2023/12/15 02:21:27;;;;;;;20.25;12.98;;;4.00;99.90;;;;;;2075829;28;20038;-76
2023/12/15 02:22:28;;;;;;;19.95;13.23;;;4.00;99.90;;;;;;2077341;28;20079;-77
2023/12/15 02:23:28;;;;;;;20.80;13.25;;;4.00;99.90;;;;;;2079740;28;20024;-77
2023/12/15 02:24:29;;;;;;;21.35;13.88;;;4.00;99.90;;;;;;2076524;28;20089;-76
2023/12/15 02:25:29;;;;;;;22.45;14.27;;;4.00;99.90;;;;;;2078066;28;20495;-76
2023/12/15 02:26:30;;;;;;;22.60;14.07;;;4.00;99.90;;;;;;2070711;28;20025;-77
2023/12/15 02:27:30;;;;;;;23.30;14.13;;;3.90;99.90;;;;;;2067802;28;20026;-77
2023/12/15 02:28:31;;;;;;;23.33;14.88;;;3.90;99.90;;;;;;2077664;28;20113;-76
2023/12/15 02:29:31;;;;;;;23.63;15.07;;;3.90;99.90;;;;;;2077230;28;20029;-77
2023/12/15 02:30:32;;;;;;;23.17;14.65;;;3.90;99.90;;;;;;2076757;28;20034;-77
2023/12/15 02:31:32;;;;;;;23.15;15.25;;;3.90;99.90;;;;;;2070504;28;20025;-77
2023/12/15 02:32:33;;;;;;;24.20;15.38;;;4.00;99.90;;;;;;2078441;28;20033;-78
2023/12/15 02:33:33;;;;;;;24.45;14.40;;;4.00;99.90;;;;;;2079705;28;20482;-77
2023/12/15 02:34:35;;;;;;;24.58;15.25;;;4.00;99.90;;;;;;2077609;28;20063;-77
2023/12/15 02:35:36;;;;;;;25.90;15.38;;;4.00;99.90;;;;;;2078110;28;20021;-77
2023/12/15 02:36:36;;;;;;;24.70;14.55;;;3.90;99.90;;;;;;2077085;28;20115;-77
2023/12/15 02:37:38;;;;;;;22.83;14.18;;;3.90;99.90;;;;;;2081687;28;20013;-77
2023/12/15 02:38:39;;;;;;;23.98;14.98;;;3.90;99.90;;;;;;2085315;28;20049;-78
2023/12/15 02:39:40;;;;;;;25.80;15.40;;;3.90;99.90;;;;;;2075933;28;20040;-77
2023/12/15 02:40:43;;;;;;;26.27;15.55;;;3.90;99.90;;;;;;2075699;28;20116;-76
2023/12/15 02:41:46;;;;;;;24.73;15.27;;;3.80;99.90;;;;;;2083258;28;20087;-77
2023/12/15 02:42:47;;;;;;;24.92;15.35;;;3.90;99.90;;;;;;2086858;28;20114;-77
2023/12/15 02:43:47;;;;;;;24.38;15.18;;;3.90;99.90;;;;;;2078858;28;20380;-77
2023/12/15 02:44:48;;;;;;;25.67;14.93;;;3.90;99.90;;;;;;2076251;28;20319;-77
2023/12/15 02:45:48;;;;;;;24.80;15.50;;;3.90;99.90;;;;;;2078735;28;20502;-77
2023/12/15 02:46:49;;;;;;;24.17;15.05;;;3.90;99.90;;;;;;2070064;28;20126;-76
2023/12/15 02:47:50;;;;;;;23.83;14.98;;;3.90;99.90;;;;;;2075002;28;20103;-76
2023/12/15 02:48:50;;;;;;;25.10;15.88;;;3.90;99.90;;;;;;2079633;28;20411;-76
2023/12/15 02:49:51;;;;;;;24.95;15.68;;;3.90;99.90;;;;;;2087140;28;20928;-75
2023/12/15 02:50:51;;;;;;;25.60;14.93;;;3.90;99.90;;;;;;2075022;28;20568;-75
2023/12/15 02:51:52;;;;;;;25.17;15.10;;;3.90;99.90;;;;;;2070808;28;20491;-74
2023/12/15 02:52:52;;;;;;;25.40;15.77;;;3.90;99.90;;;;;;2075523;28;20603;-75
2023/12/15 02:53:53;;;;;;;24.70;14.88;;;3.90;99.90;;;;;;2086865;28;20035;-75
2023/12/15 02:54:54;;;;;;;24.67;15.30;;;3.90;99.90;;;;;;2082987;28;20048;-75
2023/12/15 02:55:54;;;;;;;24.95;14.90;;;3.90;99.90;;;;;;2079394;28;20025;-76
2023/12/15 02:56:55;;;;;;;25.75;15.40;;;3.90;99.90;;;;;;2079575;28;20112;-76
2023/12/15 02:57:55;;;;;;;25.80;15.63;;;3.90;99.90;;;;;;2075785;28;20038;-77
2023/12/15 02:58:56;;;;;;;25.33;15.32;;;3.90;99.90;;;;;;2078912;28;20041;-77
2023/12/15 02:59:57;;;;;;;25.35;15.45;;;3.90;99.90;;;;;;2078841;28;20037;-77
2023/12/15 03:00:57;;;;;;;24.75;15.40;;;3.90;99.90;;;;;;2079607;28;20465;-77
2023/12/15 03:01:58;;;;;;;24.33;14.93;;;3.90;99.90;;;;;;2076223;28;20172;-76
2023/12/15 03:02:58;;;;;;;23.98;14.75;;;3.90;99.90;;;;;;2078068;28;20025;-76
2023/12/15 03:03:59;;;;;;;27.00;15.23;;;3.90;99.90;;;;;;2079198;28;20020;-76
2023/12/15 03:04:59;;;;;;;24.27;15.38;;;3.90;99.90;;;;;;2076292;28;20021;-77
2023/12/15 03:06:00;;;;;;;25.48;15.32;;;3.90;99.90;;;;;;2078563;28;20095;-76
2023/12/15 03:07:00;;;;;;;26.27;15.57;;;3.90;99.90;;;;;;2086518;28;20487;-77
2023/12/15 03:08:01;;;;;;;26.58;15.98;;;3.90;99.90;;;;;;2083710;28;20033;-77
2023/12/15 03:09:02;;;;;;;28.02;16.48;;;3.90;99.90;;;;;;2079291;28;20032;-77
2023/12/15 03:10:02;;;;;;;26.27;15.77;;;3.90;99.90;;;;;;2078604;28;20043;-76
2023/12/15 03:11:03;;;;;;;27.15;16.52;;;3.90;99.90;;;;;;2075843;28;20038;-76
2023/12/15 03:12:04;;;;;;;27.15;16.48;;;3.90;99.90;;;;;;2076612;28;20087;-76
2023/12/15 03:13:04;;;;;;;30.45;17.27;;;3.90;99.90;;;;;;2086853;28;20020;-76
2023/12/15 03:14:05;;;;;;;33.88;18.73;;;3.90;99.90;;;;;;2084428;28;20482;-76
2023/12/15 03:15:06;;;;;;;32.13;18.00;;;3.90;99.90;;;;;;2085175;28;20115;-76
2023/12/15 03:16:10;;;;;;;31.48;18.08;;;3.90;99.90;;;;;;2086583;28;20028;-76
2023/12/15 03:17:11;;;;;;;32.28;17.83;;;3.90;99.90;;;;;;2077861;28;20033;-77
2023/12/15 03:18:11;;;;;;;34.90;18.45;;;3.90;99.90;;;;;;2076426;28;20223;-76
2023/12/15 03:19:12;;;;;;;35.65;18.80;;;3.90;99.90;;;;;;2066434;28;20045;-77
2023/12/15 03:20:12;;;;;;;36.20;19.13;;;3.90;99.90;;;;;;2074898;28;20518;-77
2023/12/15 03:21:13;;;;;;;36.83;19.92;;;3.90;99.90;;;;;;2082843;28;20072;-77
2023/12/15 03:22:13;;;;;;;35.33;19.48;;;3.90;99.90;;;;;;2087150;28;20025;-78
2023/12/15 03:23:14;;;;;;;36.97;19.75;;;3.90;99.90;;;;;;2082971;28;20476;-76
2023/12/15 03:24:14;;;;;;;36.65;20.10;;;4.00;99.90;;;;;;2075363;28;20098;-77
2023/12/15 03:25:15;;;;;;;36.30;19.55;;;4.00;99.90;;;;;;2086527;28;20033;-76
2023/12/15 03:26:15;;;;;;;34.38;18.83;;;4.00;99.90;;;;;;2082919;28;20276;-77
2023/12/15 03:27:16;;;;;;;36.58;19.27;;;4.00;99.90;;;;;;2075534;28;20064;-77
2023/12/15 03:28:16;;;;;;;36.10;19.58;;;4.00;99.90;;;;;;2075482;28;20400;-76
2023/12/15 03:29:17;;;;;;;36.50;19.08;;;4.00;99.90;;;;;;2086771;28;20120;-77
2023/12/15 03:30:17;;;;;;;35.47;19.25;;;4.00;99.90;;;;;;2082671;28;20411;-77
2023/12/15 03:31:18;;;;;;;34.15;18.92;;;4.10;99.90;;;;;;2075136;28;20040;-76
2023/12/15 03:32:18;;;;;;;37.70;19.52;;;4.00;99.90;;;;;;2072739;28;20037;-77
2023/12/15 03:33:19;;;;;;;38.17;19.92;;;4.00;99.90;;;;;;2078694;28;20037;-76
2023/12/15 03:34:20;;;;;;;36.22;19.50;;;4.00;99.90;;;;;;2075798;28;20033;-77
2023/12/15 03:35:20;;;;;;;36.42;20.08;;;4.10;99.90;;;;;;2076185;28;20032;-77
2023/12/15 03:36:21;;;;;;;38.17;19.60;;;4.10;99.90;;;;;;2086131;28;20155;-77
2023/12/15 03:37:21;;;;;;;36.58;20.58;;;4.10;99.90;;;;;;2074829;28;20054;-76
2023/12/15 03:38:22;;;;;;;38.88;21.05;;;4.10;99.90;;;;;;2078811;28;20029;-77
2023/12/15 03:39:22;;;;;;;36.97;19.77;;;4.10;99.90;;;;;;2086674;28;20040;-77
2023/12/15 03:40:23;;;;;;;36.20;20.02;;;4.00;99.90;;;;;;2074582;28;20033;-77
2023/12/15 03:41:24;;;;;;;36.42;20.13;;;4.00;99.90;;;;;;2069993;28;20042;-77
2023/12/15 03:42:24;;;;;;;37.90;20.27;;;4.00;99.90;;;;;;2076429;28;20059;-75
2023/12/15 03:43:25;;;;;;;37.17;20.33;;;4.00;99.90;;;;;;2075600;28;20053;-76
2023/12/15 03:44:25;;;;;;;38.60;19.98;;;4.00;99.90;;;;;;2078769;28;20442;-77
2023/12/15 03:45:26;;;;;;;38.58;20.08;;;4.00;99.90;;;;;;2086874;28;20083;-77
2023/12/15 03:46:26;;;;;;;41.15;21.02;;;4.00;99.90;;;;;;2075512;28;20055;-77
2023/12/15 03:47:27;;;;;;;36.58;20.35;;;4.10;99.90;;;;;;2079402;28;20030;-77
2023/12/15 03:48:27;;;;;;;39.13;20.65;;;4.10;99.90;;;;;;2079257;28;20055;-76
2023/12/15 03:49:28;;;;;;;39.15;21.05;;;4.10;99.90;;;;;;2076775;28;20060;-75
2023/12/15 03:50:29;;;;;;;41.22;22.05;;;4.10;99.90;;;;;;2080677;28;20030;-76
2023/12/15 03:51:29;;;;;;;42.28;22.35;;;4.10;99.90;;;;;;2082704;28;20059;-77
2023/12/15 03:52:30;;;;;;;44.50;22.63;;;4.10;99.90;;;;;;2077972;28;20475;-76
2023/12/15 03:53:31;;;;;;;44.00;23.17;;;4.10;99.90;;;;;;2075620;28;20514;-76
2023/12/15 03:54:31;;;;;;;44.95;23.30;;;4.00;99.90;;;;;;2078475;28;20510;-75
2023/12/15 03:55:32;;;;;;;45.45;23.80;;;4.00;99.90;;;;;;2078382;28;20033;-77
2023/12/15 03:56:32;;;;;;;43.67;23.50;;;4.00;99.90;;;;;;2079889;28;20113;-77
2023/12/15 03:57:33;;;;;;;43.65;22.92;;;4.00;99.90;;;;;;2081503;28;20102;-77
2023/12/15 03:58:33;;;;;;;42.92;22.90;;;3.90;99.90;;;;;;2075743;28;20518;-77
2023/12/15 03:59:34;;;;;;;42.38;22.23;;;4.00;99.90;;;;;;2072593;28;20038;-76
2023/12/15 04:00:34;;;;;;;43.58;22.50;;;3.90;99.90;;;;;;2075555;28;20105;-76
2023/12/15 04:01:35;;;;;;;43.40;22.88;;;3.90;99.90;;;;;;2075947;28;20065;-77
2023/12/15 04:02:36;;;;;;;39.17;22.13;;;3.90;99.90;;;;;;2077760;28;20494;-76
2023/12/15 04:03:36;;;;;;;41.30;22.38;;;3.80;99.90;;;;;;2079082;28;20044;-76
2023/12/15 04:04:37;;;;;;;38.50;21.52;;;3.80;99.90;;;;;;2086167;28;20024;-76
2023/12/15 04:05:38;;;;;;;42.50;23.13;;;3.90;99.90;;;;;;2083929;28;20033;-76
2023/12/15 04:06:38;;;;;;;41.08;22.30;;;3.80;99.90;;;;;;2068490;28;20025;-76
2023/12/15 04:07:39;;;;;;;38.65;21.98;;;3.80;99.90;;;;;;2067902;28;20022;-77
2023/12/15 04:08:41;;;;;;;37.50;21.10;;;3.80;99.90;;;;;;2078985;28;20029;-77
2023/12/15 04:09:42;;;;;;;41.05;21.40;;;3.80;99.90;;;;;;2077557;28;20025;-77
2023/12/15 04:10:43;;;;;;;38.15;20.90;;;3.80;99.90;;;;;;2076816;28;20040;-77
2023/12/15 04:11:43;;;;;;;38.50;21.60;;;3.80;99.90;;;;;;2081072;28;20601;-77
2023/12/15 04:12:44;;;;;;;38.83;21.83;;;3.80;99.90;;;;;;2078183;28;20027;-77
2023/12/15 04:13:45;;;;;;;38.50;21.25;;;3.80;99.90;;;;;;2076866;28;20069;-77
2023/12/15 04:14:46;;;;;;;36.60;20.73;;;3.80;99.90;;;;;;2076687;28;20048;-76
2023/12/15 04:15:46;;;;;;;38.15;21.50;;;3.80;99.90;;;;;;2079136;28;20033;-77
2023/12/15 04:16:47;;;;;;;36.28;21.63;;;3.80;99.90;;;;;;2078015;28;20086;-76
2023/12/15 04:17:47;;;;;;;37.92;21.13;;;3.80;99.90;;;;;;2076562;28;20026;-76
2023/12/15 04:18:48;;;;;;;40.53;21.02;;;3.80;99.90;;;;;;2075422;28;20029;-77
2023/12/15 04:19:48;;;;;;;39.67;21.58;;;3.80;99.90;;;;;;2075604;28;20034;-77
2023/12/15 04:20:49;;;;;;;36.55;20.70;;;3.80;99.90;;;;;;2075298;28;20067;-76
2023/12/15 04:21:50;;;;;;;36.17;20.35;;;3.80;99.90;;;;;;2075244;28;20039;-76
2023/12/15 04:22:50;;;;;;;37.05;21.02;;;3.90;99.90;;;;;;2075008;28;20395;-77
2023/12/15 04:23:51;;;;;;;36.47;21.10;;;3.80;99.90;;;;;;2074996;28;20540;-77
2023/12/15 04:24:51;;;;;;;35.60;20.60;;;3.90;99.90;;;;;;2086492;28;20017;-76
2023/12/15 04:25:52;;;;;;;35.38;20.35;;;3.80;99.90;;;;;;2085980;28;20059;-77
2023/12/15 04:26:53;;;;;;;34.20;19.10;;;3.80;99.90;;;;;;2075605;28;20041;-76
2023/12/15 04:27:54;;;;;;;33.88;19.40;;;3.80;99.90;;;;;;2087028;28;20041;-76
2023/12/15 04:28:54;;;;;;;34.45;19.45;;;3.80;99.90;;;;;;2074508;28;20515;-75
2023/12/15 04:29:55;;;;;;;36.33;19.67;;;3.80;99.90;;;;;;2074629;28;20030;-76
2023/12/15 04:30:55;;;;;;;34.38;18.92;;;3.80;99.90;;;;;;2073932;28;20517;-76
2023/12/15 04:31:56;;;;;;;33.47;18.98;;;3.80;99.90;;;;;;2062988;28;20087;-75
2023/12/15 04:32:57;;;;;;;35.70;19.50;;;3.80;99.90;;;;;;2074422;28;20112;-76
2023/12/15 04:33:57;;;;;;;33.33;18.33;;;3.70;99.90;;;;;;2086601;28;20083;-76
2023/12/15 04:34:58;;;;;;;32.95;19.27;;;3.70;99.90;;;;;;2078371;28;20029;-76
2023/12/15 04:35:58;;;;;;;33.53;19.20;;;3.70;99.90;;;;;;2074533;28;20555;-76
2023/12/15 04:36:59;;;;;;;32.08;19.20;;;3.70;99.90;;;;;;2078050;28;20432;-76
2023/12/15 04:38:00;;;;;;;31.25;18.45;;;3.70;99.90;;;;;;2077662;28;20021;-76
2023/12/15 04:39:02;;;;;;;33.65;19.33;;;3.70;99.90;;;;;;2071694;28;20025;-76
2023/12/15 04:40:03;;;;;;;34.63;19.00;;;3.70;99.90;;;;;;2078040;28;20041;-76
2023/12/15 04:41:04;;;;;;;31.73;18.45;;;3.70;99.90;;;;;;2078982;28;20060;-76
2023/12/15 04:42:04;;;;;;;33.20;19.17;;;3.70;99.90;;;;;;2074752;28;20021;-76
2023/12/15 04:43:05;;;;;;;34.40;19.58;;;3.70;99.90;;;;;;2075581;28;20079;-76
2023/12/15 04:44:06;;;;;;;35.28;18.70;;;3.70;99.90;;;;;;2077926;28;20041;-79
2023/12/15 04:45:09;;;;;;;33.53;19.10;;;3.70;99.90;;;;;;2086315;28;20302;-76
2023/12/15 04:46:10;;;;;;;35.50;19.77;;;3.80;99.90;;;;;;2082305;28;20396;-78
2023/12/15 04:47:10;;;;;;;33.47;19.65;;;3.80;99.90;;;;;;2082180;28;20032;-78
2023/12/15 04:48:11;;;;;;;34.00;19.85;;;3.70;99.90;;;;;;2078159;28;20214;-78
2023/12/15 04:49:11;;;;;;;33.92;19.15;;;3.80;99.90;;;;;;2067792;28;20034;-77
2023/12/15 04:50:12;;;;;;;35.58;19.75;;;3.70;99.90;;;;;;2076512;28;20033;-77
2023/12/15 04:51:13;;;;;;;34.47;20.02;;;3.80;99.90;;;;;;2083148;28;20041;-78
2023/12/15 04:52:14;;;;;;;34.28;19.10;;;3.80;99.90;;;;;;2082046;28;20048;-77
2023/12/15 04:53:14;;;;;;;35.40;19.02;;;3.80;99.90;;;;;;2077691;28;20123;-76
2023/12/15 04:54:15;;;;;;;33.92;19.60;;;3.80;99.90;;;;;;2071418;28;20668;-78
2023/12/15 04:55:15;;;;;;;33.28;18.38;;;3.70;99.90;;;;;;2077487;28;20423;-77
2023/12/15 04:56:16;;;;;;;34.15;19.30;;;3.80;99.90;;;;;;2076741;28;20410;-77
2023/12/15 04:57:17;;;;;;;33.40;18.80;;;3.80;99.90;;;;;;2083692;28;20985;-77
2023/12/15 04:58:17;;;;;;;31.85;19.02;;;3.80;99.90;;;;;;2086658;28;20505;-77
2023/12/15 04:59:18;;;;;;;32.38;18.50;;;3.80;99.90;;;;;;2083977;28;20070;-77
2023/12/15 05:00:19;;;;;;;32.78;19.67;;;3.70;99.90;;;;;;2084255;28;20041;-77
2023/12/15 05:01:19;;;;;;;33.17;19.60;;;3.80;99.90;;;;;;2076827;28;20037;-77
2023/12/15 05:02:20;;;;;;;36.40;19.80;;;3.80;99.90;;;;;;2080628;28;20057;-76
2023/12/15 05:03:20;;;;;;;34.53;19.83;;;3.80;99.90;;;;;;2076537;28;20044;-76
2023/12/15 05:04:21;;;;;;;33.80;19.42;;;3.80;99.90;;;;;;2083766;28;20048;-76
2023/12/15 05:05:21;;;;;;;33.00;19.17;;;3.80;99.90;;;;;;2069118;28;20132;-76
2023/12/15 05:06:23;;;;;;;33.90;19.38;;;3.70;99.90;;;;;;2071485;28;20566;-76
2023/12/15 05:07:23;;;;;;;32.95;19.08;;;3.80;99.90;;;;;;2072920;28;20052;-76
2023/12/15 05:08:24;;;;;;;32.35;19.77;;;3.80;99.90;;;;;;2078743;28;20029;-76
2023/12/15 05:09:24;;;;;;;33.50;19.40;;;3.70;99.90;;;;;;2079465;28;20033;-76
2023/12/15 05:10:25;;;;;;;34.38;19.35;;;3.80;99.90;;;;;;2079998;28;20252;-76
2023/12/15 05:11:26;;;;;;;34.25;19.85;;;3.70;99.90;;;;;;2076983;28;20089;-77
2023/12/15 05:12:26;;;;;;;31.95;19.52;;;3.80;99.90;;;;;;2080487;28;20025;-76